sensor_id;sensor_type;location;lat;lon;timestamp;temperature;humidity
10046;DHT22;5063;50.878;4.742;2023-09-19T00:01:33;14.80;99.90
10046;DHT22;5063;50.878;4.742;2023-09-19T00:03:59;14.80;99.90
10046;DHT22;5063;50.878;4.742;2023-09-19T00:06:28;14.70;99.90
10046;DHT22;5063;50.878;4.742;2023-09-19T00:08:57;14.70;99.90
10046;DHT22;5063;50.878;4.742;2023-09-19T00:11:24;14.70;99.90
10046;DHT22;5063;50.878;4.742;2023-09-19T00:13:51;14.80;99.90
10046;DHT22;5063;50.878;4.742;2023-09-19T00:16:17;14.80;99.90
10046;DHT22;5063;50.878;4.742;2023-09-19T00:18:45;14.80;99.90
10046;DHT22;5063;50.878;4.742;2023-09-19T00:21:11;14.80;99.90
10046;DHT22;5063;50.878;4.742;2023-09-19T00:23:38;14.80;99.90
10046;DHT22;5063;50.878;4.742;2023-09-19T00:26:06;14.80;99.90
10046;DHT22;5063;50.878;4.742;2023-09-19T00:28:32;14.90;99.90
10046;DHT22;5063;50.878;4.742;2023-09-19T00:30:58;14.80;99.90
10046;DHT22;5063;50.878;4.742;2023-09-19T00:33:27;14.80;99.90
10046;DHT22;5063;50.878;4.742;2023-09-19T00:35:56;14.80;99.90
10046;DHT22;5063;50.878;4.742;2023-09-19T00:38:23;14.80;99.90
10046;DHT22;5063;50.878;4.742;2023-09-19T00:40:53;14.80;99.90
10046;DHT22;5063;50.878;4.742;2023-09-19T00:43:22;14.80;99.90
10046;DHT22;5063;50.878;4.742;2023-09-19T00:45:51;14.80;99.90
10046;DHT22;5063;50.878;4.742;2023-09-19T00:48:19;14.80;99.90
10046;DHT22;5063;50.878;4.742;2023-09-19T00:50:46;14.80;99.90
10046;DHT22;5063;50.878;4.742;2023-09-19T00:53:15;14.80;99.90
10046;DHT22;5063;50.878;4.742;2023-09-19T00:55:41;14.70;99.90
10046;DHT22;5063;50.878;4.742;2023-09-19T00:58:08;14.70;99.90
10046;DHT22;5063;50.878;4.742;2023-09-19T01:00:36;14.70;99.90
10046;DHT22;5063;50.878;4.742;2023-09-19T01:03:02;14.60;99.90
10046;DHT22;5063;50.878;4.742;2023-09-19T01:05:28;14.60;99.90
10046;DHT22;5063;50.878;4.742;2023-09-19T01:07:55;14.60;99.90
10046;DHT22;5063;50.878;4.742;2023-09-19T01:10:21;14.60;99.90
10046;DHT22;5063;50.878;4.742;2023-09-19T01:23:59;14.30;99.90
10046;DHT22;5063;50.878;4.742;2023-09-19T01:29:12;14.30;99.90
10046;DHT22;5063;50.878;4.742;2023-09-19T01:31:40;14.30;99.90
10046;DHT22;5063;50.878;4.742;2023-09-19T01:34:08;14.20;99.90
10046;DHT22;5063;50.878;4.742;2023-09-19T01:36:38;14.20;99.90
10046;DHT22;5063;50.878;4.742;2023-09-19T01:39:13;14.20;99.90
10046;DHT22;5063;50.878;4.742;2023-09-19T01:44:31;14.10;99.90
10046;DHT22;5063;50.878;4.742;2023-09-19T01:47:10;14.10;99.90
10046;DHT22;5063;50.878;4.742;2023-09-19T01:49:48;14.10;99.90
10046;DHT22;5063;50.878;4.742;2023-09-19T01:52:16;14.10;99.90
10046;DHT22;5063;50.878;4.742;2023-09-19T01:54:52;14.00;99.90
10046;DHT22;5063;50.878;4.742;2023-09-19T01:57:30;14.00;99.90
10046;DHT22;5063;50.878;4.742;2023-09-19T02:00:09;13.90;99.90
10046;DHT22;5063;50.878;4.742;2023-09-19T02:02:38;13.90;99.90
10046;DHT22;5063;50.878;4.742;2023-09-19T02:05:05;13.80;99.90
10046;DHT22;5063;50.878;4.742;2023-09-19T02:07:32;13.80;99.90
10046;DHT22;5063;50.878;4.742;2023-09-19T02:09:58;13.80;99.90
10046;DHT22;5063;50.878;4.742;2023-09-19T02:12:30;13.80;99.90
10046;DHT22;5063;50.878;4.742;2023-09-19T02:14:56;13.80;99.90
10046;DHT22;5063;50.878;4.742;2023-09-19T02:17:23;13.80;99.90
10046;DHT22;5063;50.878;4.742;2023-09-19T02:19:54;13.80;99.90
10046;DHT22;5063;50.878;4.742;2023-09-19T02:22:21;13.80;99.90
10046;DHT22;5063;50.878;4.742;2023-09-19T02:24:50;13.90;99.90
10046;DHT22;5063;50.878;4.742;2023-09-19T02:27:16;13.90;99.90
10046;DHT22;5063;50.878;4.742;2023-09-19T02:29:45;13.90;99.90
10046;DHT22;5063;50.878;4.742;2023-09-19T02:32:10;13.90;99.90
10046;DHT22;5063;50.878;4.742;2023-09-19T02:34:37;13.90;99.90
10046;DHT22;5063;50.878;4.742;2023-09-19T02:37:05;13.90;99.90
10046;DHT22;5063;50.878;4.742;2023-09-19T02:39:31;13.90;99.90
10046;DHT22;5063;50.878;4.742;2023-09-19T02:41:57;14.00;99.90
10046;DHT22;5063;50.878;4.742;2023-09-19T02:44:23;14.00;99.90
10046;DHT22;5063;50.878;4.742;2023-09-19T02:46:49;14.10;99.90
10046;DHT22;5063;50.878;4.742;2023-09-19T02:49:16;14.20;99.90
10046;DHT22;5063;50.878;4.742;2023-09-19T02:51:43;14.30;99.90
10046;DHT22;5063;50.878;4.742;2023-09-19T02:54:09;14.30;99.90
10046;DHT22;5063;50.878;4.742;2023-09-19T02:56:35;14.30;99.90
10046;DHT22;5063;50.878;4.742;2023-09-19T02:59:01;14.30;99.90
10046;DHT22;5063;50.878;4.742;2023-09-19T03:01:28;14.40;99.90
10046;DHT22;5063;50.878;4.742;2023-09-19T03:03:54;14.40;99.90
10046;DHT22;5063;50.878;4.742;2023-09-19T03:06:20;14.50;99.90
10046;DHT22;5063;50.878;4.742;2023-09-19T03:08:47;14.60;99.90
10046;DHT22;5063;50.878;4.742;2023-09-19T03:11:15;14.60;99.90
10046;DHT22;5063;50.878;4.742;2023-09-19T03:13:41;14.70;99.90
10046;DHT22;5063;50.878;4.742;2023-09-19T03:16:08;14.70;99.90
10046;DHT22;5063;50.878;4.742;2023-09-19T03:18:34;14.70;99.90
10046;DHT22;5063;50.878;4.742;2023-09-19T03:21:00;14.80;99.90
10046;DHT22;5063;50.878;4.742;2023-09-19T03:23:27;14.80;99.90
10046;DHT22;5063;50.878;4.742;2023-09-19T03:25:54;14.80;99.90
10046;DHT22;5063;50.878;4.742;2023-09-19T03:28:20;14.80;99.90
10046;DHT22;5063;50.878;4.742;2023-09-19T03:31:04;14.80;99.90
10046;DHT22;5063;50.878;4.742;2023-09-19T03:33:30;14.80;99.90
10046;DHT22;5063;50.878;4.742;2023-09-19T03:36:00;14.70;99.90
10046;DHT22;5063;50.878;4.742;2023-09-19T03:38:27;14.70;99.90
10046;DHT22;5063;50.878;4.742;2023-09-19T03:40:53;14.70;99.90
10046;DHT22;5063;50.878;4.742;2023-09-19T03:43:19;14.70;99.90
10046;DHT22;5063;50.878;4.742;2023-09-19T03:45:44;14.80;99.90
10046;DHT22;5063;50.878;4.742;2023-09-19T03:48:13;14.80;99.90
10046;DHT22;5063;50.878;4.742;2023-09-19T03:50:39;14.80;99.90
10046;DHT22;5063;50.878;4.742;2023-09-19T03:53:06;14.90;99.90
10046;DHT22;5063;50.878;4.742;2023-09-19T03:55:34;14.90;99.90
10046;DHT22;5063;50.878;4.742;2023-09-19T03:58:01;14.90;99.90
10046;DHT22;5063;50.878;4.742;2023-09-19T04:00:27;14.80;99.90
10046;DHT22;5063;50.878;4.742;2023-09-19T04:02:55;14.80;99.90
10046;DHT22;5063;50.878;4.742;2023-09-19T04:05:22;14.70;99.90
10046;DHT22;5063;50.878;4.742;2023-09-19T04:07:48;14.50;99.90
10046;DHT22;5063;50.878;4.742;2023-09-19T04:10:15;14.40;99.90
10046;DHT22;5063;50.878;4.742;2023-09-19T04:12:53;14.20;99.90
10046;DHT22;5063;50.878;4.742;2023-09-19T04:15:20;14.10;99.90
10046;DHT22;5063;50.878;4.742;2023-09-19T04:17:49;13.90;99.90
10046;DHT22;5063;50.878;4.742;2023-09-19T04:20:15;13.80;99.90
10046;DHT22;5063;50.878;4.742;2023-09-19T04:22:41;13.70;99.90
10046;DHT22;5063;50.878;4.742;2023-09-19T04:25:07;13.70;99.90
10046;DHT22;5063;50.878;4.742;2023-09-19T04:27:33;13.60;99.90
10046;DHT22;5063;50.878;4.742;2023-09-19T04:29:59;13.60;99.90
10046;DHT22;5063;50.878;4.742;2023-09-19T04:32:34;13.60;99.90
10046;DHT22;5063;50.878;4.742;2023-09-19T04:35:01;13.60;99.90
10046;DHT22;5063;50.878;4.742;2023-09-19T04:37:31;13.60;99.90
10046;DHT22;5063;50.878;4.742;2023-09-19T04:39:57;13.60;99.90
10046;DHT22;5063;50.878;4.742;2023-09-19T04:42:22;13.50;99.90
10046;DHT22;5063;50.878;4.742;2023-09-19T04:44:50;13.70;99.90
10046;DHT22;5063;50.878;4.742;2023-09-19T04:47:19;13.70;99.90
10046;DHT22;5063;50.878;4.742;2023-09-19T04:49:45;13.80;99.90
10046;DHT22;5063;50.878;4.742;2023-09-19T04:52:10;13.80;99.90
10046;DHT22;5063;50.878;4.742;2023-09-19T04:54:36;13.90;99.90
10046;DHT22;5063;50.878;4.742;2023-09-19T04:57:01;13.90;99.90
10046;DHT22;5063;50.878;4.742;2023-09-19T04:59:27;13.90;99.90
10046;DHT22;5063;50.878;4.742;2023-09-19T05:01:54;13.90;99.90
10046;DHT22;5063;50.878;4.742;2023-09-19T05:04:19;13.90;99.90
10046;DHT22;5063;50.878;4.742;2023-09-19T05:06:45;13.80;99.90
10046;DHT22;5063;50.878;4.742;2023-09-19T05:09:11;13.80;99.90
10046;DHT22;5063;50.878;4.742;2023-09-19T05:11:36;13.80;99.90
10046;DHT22;5063;50.878;4.742;2023-09-19T05:14:04;13.80;99.90
10046;DHT22;5063;50.878;4.742;2023-09-19T05:16:30;13.70;99.90
10046;DHT22;5063;50.878;4.742;2023-09-19T05:18:59;13.70;99.90
10046;DHT22;5063;50.878;4.742;2023-09-19T05:21:26;13.70;99.90
10046;DHT22;5063;50.878;4.742;2023-09-19T05:23:54;13.60;99.90
10046;DHT22;5063;50.878;4.742;2023-09-19T05:26:20;13.60;99.90
10046;DHT22;5063;50.878;4.742;2023-09-19T05:28:46;13.60;99.90
10046;DHT22;5063;50.878;4.742;2023-09-19T05:31:13;13.50;99.90
10046;DHT22;5063;50.878;4.742;2023-09-19T05:33:40;13.50;99.90
10046;DHT22;5063;50.878;4.742;2023-09-19T05:36:06;13.60;99.90
10046;DHT22;5063;50.878;4.742;2023-09-19T05:38:33;13.50;99.90
10046;DHT22;5063;50.878;4.742;2023-09-19T05:40:58;13.50;99.90
10046;DHT22;5063;50.878;4.742;2023-09-19T05:43:24;13.60;99.90
10046;DHT22;5063;50.878;4.742;2023-09-19T05:45:49;13.60;99.90
10046;DHT22;5063;50.878;4.742;2023-09-19T05:48:17;13.60;99.90
10046;DHT22;5063;50.878;4.742;2023-09-19T05:50:43;13.60;99.90
10046;DHT22;5063;50.878;4.742;2023-09-19T05:53:10;13.70;99.90
10046;DHT22;5063;50.878;4.742;2023-09-19T05:55:40;13.80;99.90
10046;DHT22;5063;50.878;4.742;2023-09-19T05:58:06;13.80;99.90
10046;DHT22;5063;50.878;4.742;2023-09-19T06:00:32;13.90;99.90
10046;DHT22;5063;50.878;4.742;2023-09-19T06:02:59;14.00;99.90
10046;DHT22;5063;50.878;4.742;2023-09-19T06:05:26;14.00;99.90
10046;DHT22;5063;50.878;4.742;2023-09-19T06:07:52;14.10;99.90
10046;DHT22;5063;50.878;4.742;2023-09-19T06:10:19;14.20;99.90
10046;DHT22;5063;50.878;4.742;2023-09-19T06:12:46;14.20;99.90
10046;DHT22;5063;50.878;4.742;2023-09-19T06:15:13;14.30;99.90
10046;DHT22;5063;50.878;4.742;2023-09-19T06:17:52;14.40;99.90
10046;DHT22;5063;50.878;4.742;2023-09-19T06:20:21;14.50;99.90
10046;DHT22;5063;50.878;4.742;2023-09-19T06:22:48;14.60;99.90
10046;DHT22;5063;50.878;4.742;2023-09-19T06:25:16;14.70;99.90
10046;DHT22;5063;50.878;4.742;2023-09-19T06:27:45;14.80;99.90
10046;DHT22;5063;50.878;4.742;2023-09-19T06:30:11;14.90;99.90
10046;DHT22;5063;50.878;4.742;2023-09-19T06:32:38;15.00;99.90
10046;DHT22;5063;50.878;4.742;2023-09-19T06:35:04;15.20;99.90
10046;DHT22;5063;50.878;4.742;2023-09-19T06:37:33;15.30;99.90
10046;DHT22;5063;50.878;4.742;2023-09-19T06:40:00;15.60;99.90
10046;DHT22;5063;50.878;4.742;2023-09-19T06:42:26;15.80;99.90
10046;DHT22;5063;50.878;4.742;2023-09-19T06:44:53;16.10;99.90
10046;DHT22;5063;50.878;4.742;2023-09-19T06:47:19;16.30;99.90
10046;DHT22;5063;50.878;4.742;2023-09-19T06:49:45;16.60;99.90
10046;DHT22;5063;50.878;4.742;2023-09-19T06:52:11;17.00;99.90
10046;DHT22;5063;50.878;4.742;2023-09-19T06:54:37;17.40;99.90
10046;DHT22;5063;50.878;4.742;2023-09-19T06:57:03;17.60;99.90
10046;DHT22;5063;50.878;4.742;2023-09-19T06:59:29;17.60;99.90
10046;DHT22;5063;50.878;4.742;2023-09-19T07:01:55;17.30;99.90
10046;DHT22;5063;50.878;4.742;2023-09-19T07:04:20;17.40;99.90
10046;DHT22;5063;50.878;4.742;2023-09-19T07:06:50;17.20;99.90
10046;DHT22;5063;50.878;4.742;2023-09-19T07:09:16;17.10;99.90
10046;DHT22;5063;50.878;4.742;2023-09-19T07:11:42;17.00;99.90
10046;DHT22;5063;50.878;4.742;2023-09-19T07:14:08;17.00;99.90
10046;DHT22;5063;50.878;4.742;2023-09-19T07:16:40;17.00;99.90
10046;DHT22;5063;50.878;4.742;2023-09-19T07:19:08;17.10;99.90
10046;DHT22;5063;50.878;4.742;2023-09-19T07:21:33;17.20;99.90
10046;DHT22;5063;50.878;4.742;2023-09-19T07:24:01;17.20;99.90
10046;DHT22;5063;50.878;4.742;2023-09-19T07:26:30;17.60;99.90
10046;DHT22;5063;50.878;4.742;2023-09-19T07:28:56;17.70;99.90
10046;DHT22;5063;50.878;4.742;2023-09-19T07:31:23;18.40;99.90
10046;DHT22;5063;50.878;4.742;2023-09-19T07:33:50;19.00;99.90
10046;DHT22;5063;50.878;4.742;2023-09-19T07:36:17;18.90;99.90
10046;DHT22;5063;50.878;4.742;2023-09-19T07:38:42;19.30;99.90
10046;DHT22;5063;50.878;4.742;2023-09-19T07:41:08;20.50;99.90
10046;DHT22;5063;50.878;4.742;2023-09-19T07:43:35;20.70;99.90
10046;DHT22;5063;50.878;4.742;2023-09-19T07:46:08;20.80;99.90
10046;DHT22;5063;50.878;4.742;2023-09-19T07:48:37;20.80;99.90
10046;DHT22;5063;50.878;4.742;2023-09-19T07:51:07;21.10;99.90
10046;DHT22;5063;50.878;4.742;2023-09-19T07:53:34;20.40;99.90
10046;DHT22;5063;50.878;4.742;2023-09-19T07:56:05;20.60;99.90
10046;DHT22;5063;50.878;4.742;2023-09-19T07:58:31;20.30;99.90
10046;DHT22;5063;50.878;4.742;2023-09-19T08:01:02;20.10;99.90
10046;DHT22;5063;50.878;4.742;2023-09-19T08:03:28;20.30;99.90
10046;DHT22;5063;50.878;4.742;2023-09-19T08:05:56;20.30;99.90
10046;DHT22;5063;50.878;4.742;2023-09-19T08:08:23;20.30;99.90
10046;DHT22;5063;50.878;4.742;2023-09-19T08:10:58;20.40;99.90
10046;DHT22;5063;50.878;4.742;2023-09-19T08:13:24;20.40;99.90
10046;DHT22;5063;50.878;4.742;2023-09-19T08:15:51;20.20;99.90
10046;DHT22;5063;50.878;4.742;2023-09-19T08:18:18;20.20;99.90
10046;DHT22;5063;50.878;4.742;2023-09-19T08:20:49;20.50;99.90
10046;DHT22;5063;50.878;4.742;2023-09-19T08:23:16;20.60;99.90
10046;DHT22;5063;50.878;4.742;2023-09-19T08:25:43;20.30;99.90
10046;DHT22;5063;50.878;4.742;2023-09-19T08:28:10;20.90;99.90
10046;DHT22;5063;50.878;4.742;2023-09-19T08:30:38;21.20;99.90
10046;DHT22;5063;50.878;4.742;2023-09-19T08:33:06;21.50;99.90
10046;DHT22;5063;50.878;4.742;2023-09-19T08:35:33;21.60;99.90
10046;DHT22;5063;50.878;4.742;2023-09-19T08:37:59;21.30;99.90
10046;DHT22;5063;50.878;4.742;2023-09-19T08:40:30;21.50;99.90
10046;DHT22;5063;50.878;4.742;2023-09-19T08:42:59;21.30;99.90
10046;DHT22;5063;50.878;4.742;2023-09-19T08:45:26;21.40;99.90
10046;DHT22;5063;50.878;4.742;2023-09-19T08:48:27;21.20;99.90
10046;DHT22;5063;50.878;4.742;2023-09-19T08:51:03;21.20;99.90
10046;DHT22;5063;50.878;4.742;2023-09-19T08:56:08;20.50;99.90
10046;DHT22;5063;50.878;4.742;2023-09-19T08:58:48;20.60;99.90
10046;DHT22;5063;50.878;4.742;2023-09-19T09:01:18;21.10;99.90
10046;DHT22;5063;50.878;4.742;2023-09-19T09:03:55;20.80;99.90
10046;DHT22;5063;50.878;4.742;2023-09-19T09:06:24;20.70;99.90
10046;DHT22;5063;50.878;4.742;2023-09-19T09:09:01;20.30;99.90
10046;DHT22;5063;50.878;4.742;2023-09-19T09:11:33;20.10;99.90
10046;DHT22;5063;50.878;4.742;2023-09-19T09:13:59;20.10;99.90
10046;DHT22;5063;50.878;4.742;2023-09-19T09:16:30;20.10;99.90
10046;DHT22;5063;50.878;4.742;2023-09-19T09:18:56;20.00;99.90
10046;DHT22;5063;50.878;4.742;2023-09-19T09:21:27;20.10;99.90
10046;DHT22;5063;50.878;4.742;2023-09-19T09:23:56;20.20;99.90
10046;DHT22;5063;50.878;4.742;2023-09-19T09:26:41;20.10;99.90
10046;DHT22;5063;50.878;4.742;2023-09-19T09:29:12;20.20;99.90
10046;DHT22;5063;50.878;4.742;2023-09-19T09:31:38;20.00;99.90
10046;DHT22;5063;50.878;4.742;2023-09-19T09:34:08;19.80;99.90
10046;DHT22;5063;50.878;4.742;2023-09-19T09:36:36;19.90;99.90
10046;DHT22;5063;50.878;4.742;2023-09-19T09:39:02;20.10;99.90
10046;DHT22;5063;50.878;4.742;2023-09-19T09:41:41;20.00;99.90
10046;DHT22;5063;50.878;4.742;2023-09-19T09:44:18;20.00;99.90
10046;DHT22;5063;50.878;4.742;2023-09-19T09:46:46;19.80;99.90
10046;DHT22;5063;50.878;4.742;2023-09-19T09:49:25;19.90;99.90
10046;DHT22;5063;50.878;4.742;2023-09-19T09:52:04;20.00;99.90
10046;DHT22;5063;50.878;4.742;2023-09-19T09:55:01;20.20;99.90
10046;DHT22;5063;50.878;4.742;2023-09-19T09:57:31;20.10;99.90
10046;DHT22;5063;50.878;4.742;2023-09-19T10:00:00;20.10;99.90
10046;DHT22;5063;50.878;4.742;2023-09-19T10:02:55;20.20;99.90
10046;DHT22;5063;50.878;4.742;2023-09-19T10:05:23;20.20;99.90
10046;DHT22;5063;50.878;4.742;2023-09-19T10:07:55;20.00;99.90
10046;DHT22;5063;50.878;4.742;2023-09-19T10:10:37;19.90;99.90
10046;DHT22;5063;50.878;4.742;2023-09-19T10:13:10;19.80;99.90
10046;DHT22;5063;50.878;4.742;2023-09-19T10:15:46;19.80;99.90
10046;DHT22;5063;50.878;4.742;2023-09-19T10:18:27;19.70;99.90
10046;DHT22;5063;50.878;4.742;2023-09-19T10:20:57;19.70;99.90
10046;DHT22;5063;50.878;4.742;2023-09-19T10:23:23;19.80;99.90
10046;DHT22;5063;50.878;4.742;2023-09-19T10:25:52;19.70;99.90
10046;DHT22;5063;50.878;4.742;2023-09-19T10:28:19;19.50;99.90
10046;DHT22;5063;50.878;4.742;2023-09-19T10:30:50;19.50;99.90
10046;DHT22;5063;50.878;4.742;2023-09-19T10:33:19;19.60;99.90
10046;DHT22;5063;50.878;4.742;2023-09-19T10:35:49;19.60;99.90
10046;DHT22;5063;50.878;4.742;2023-09-19T10:38:23;19.70;99.90
10046;DHT22;5063;50.878;4.742;2023-09-19T10:40:50;19.60;99.90
10046;DHT22;5063;50.878;4.742;2023-09-19T10:43:18;19.50;99.90
10046;DHT22;5063;50.878;4.742;2023-09-19T10:45:45;19.50;99.90
10046;DHT22;5063;50.878;4.742;2023-09-19T10:48:20;19.50;99.90
10046;DHT22;5063;50.878;4.742;2023-09-19T10:53:48;19.60;99.90
10046;DHT22;5063;50.878;4.742;2023-09-19T10:56:23;19.60;99.90
10046;DHT22;5063;50.878;4.742;2023-09-19T10:58:50;19.60;99.90
10046;DHT22;5063;50.878;4.742;2023-09-19T11:01:16;19.50;99.90
10046;DHT22;5063;50.878;4.742;2023-09-19T11:03:43;19.60;99.90
10046;DHT22;5063;50.878;4.742;2023-09-19T11:06:16;19.60;99.90
10046;DHT22;5063;50.878;4.742;2023-09-19T11:30:38;20.30;99.90
10046;DHT22;5063;50.878;4.742;2023-09-19T11:33:29;20.40;99.90
10046;DHT22;5063;50.878;4.742;2023-09-19T11:36:08;20.50;99.90
10046;DHT22;5063;50.878;4.742;2023-09-19T11:38:57;20.60;99.90
10046;DHT22;5063;50.878;4.742;2023-09-19T11:49:26;20.60;99.90
10046;DHT22;5063;50.878;4.742;2023-09-19T11:52:03;20.70;99.90
10046;DHT22;5063;50.878;4.742;2023-09-19T11:54:34;20.80;99.90
10046;DHT22;5063;50.878;4.742;2023-09-19T11:57:02;20.80;99.90
10046;DHT22;5063;50.878;4.742;2023-09-19T11:59:31;21.10;99.90
10046;DHT22;5063;50.878;4.742;2023-09-19T12:02:05;21.50;99.90
10046;DHT22;5063;50.878;4.742;2023-09-19T12:07:11;21.30;99.90
10046;DHT22;5063;50.878;4.742;2023-09-19T12:09:50;21.60;99.90
10046;DHT22;5063;50.878;4.742;2023-09-19T12:12:20;21.50;99.90
10046;DHT22;5063;50.878;4.742;2023-09-19T12:14:50;21.40;99.90
10046;DHT22;5063;50.878;4.742;2023-09-19T12:17:19;21.40;99.90
10046;DHT22;5063;50.878;4.742;2023-09-19T12:19:56;21.20;99.90
10046;DHT22;5063;50.878;4.742;2023-09-19T12:22:24;21.30;99.90
10046;DHT22;5063;50.878;4.742;2023-09-19T12:24:50;21.00;99.90
10046;DHT22;5063;50.878;4.742;2023-09-19T12:27:20;21.00;99.90
10046;DHT22;5063;50.878;4.742;2023-09-19T12:29:49;21.10;99.90
10046;DHT22;5063;50.878;4.742;2023-09-19T12:32:15;21.20;99.90
10046;DHT22;5063;50.878;4.742;2023-09-19T12:34:53;21.10;99.90
10046;DHT22;5063;50.878;4.742;2023-09-19T12:37:20;21.00;99.90
10046;DHT22;5063;50.878;4.742;2023-09-19T12:39:53;20.90;99.90
10046;DHT22;5063;50.878;4.742;2023-09-19T12:42:40;20.60;99.90
10046;DHT22;5063;50.878;4.742;2023-09-19T12:45:07;20.40;99.90
10046;DHT22;5063;50.878;4.742;2023-09-19T12:47:35;20.70;99.90
10046;DHT22;5063;50.878;4.742;2023-09-19T12:52:37;20.80;99.90
10046;DHT22;5063;50.878;4.742;2023-09-19T12:55:03;20.90;99.90
10046;DHT22;5063;50.878;4.742;2023-09-19T12:57:30;20.80;99.90
10046;DHT22;5063;50.878;4.742;2023-09-19T13:00:03;20.70;99.90
10046;DHT22;5063;50.878;4.742;2023-09-19T13:02:31;20.90;99.90
10046;DHT22;5063;50.878;4.742;2023-09-19T13:04:58;21.30;99.90
10046;DHT22;5063;50.878;4.742;2023-09-19T13:07:45;21.40;99.90
10046;DHT22;5063;50.878;4.742;2023-09-19T13:10:13;21.60;99.90
10046;DHT22;5063;50.878;4.742;2023-09-19T13:12:42;21.70;99.90
10046;DHT22;5063;50.878;4.742;2023-09-19T13:15:14;21.80;99.90
10046;DHT22;5063;50.878;4.742;2023-09-19T13:17:46;21.80;99.90
10046;DHT22;5063;50.878;4.742;2023-09-19T13:20:24;21.70;99.90
10046;DHT22;5063;50.878;4.742;2023-09-19T13:22:54;21.30;99.90
10046;DHT22;5063;50.878;4.742;2023-09-19T13:25:24;21.20;99.90
10046;DHT22;5063;50.878;4.742;2023-09-19T13:27:51;21.40;99.90
10046;DHT22;5063;50.878;4.742;2023-09-19T13:30:20;21.60;99.90
10046;DHT22;5063;50.878;4.742;2023-09-19T13:32:46;21.50;99.90
10046;DHT22;5063;50.878;4.742;2023-09-19T13:35:13;21.30;99.90
10046;DHT22;5063;50.878;4.742;2023-09-19T13:37:40;21.20;99.90
10046;DHT22;5063;50.878;4.742;2023-09-19T13:40:14;21.10;99.90
10046;DHT22;5063;50.878;4.742;2023-09-19T13:42:41;20.90;99.90
10046;DHT22;5063;50.878;4.742;2023-09-19T13:45:07;21.00;99.90
10046;DHT22;5063;50.878;4.742;2023-09-19T13:47:37;20.90;99.90
10046;DHT22;5063;50.878;4.742;2023-09-19T13:50:04;21.00;99.90
10046;DHT22;5063;50.878;4.742;2023-09-19T13:52:33;21.20;99.90
10046;DHT22;5063;50.878;4.742;2023-09-19T13:54:59;21.20;99.90
10046;DHT22;5063;50.878;4.742;2023-09-19T13:57:25;21.20;99.90
10046;DHT22;5063;50.878;4.742;2023-09-19T13:59:52;21.20;99.90
10046;DHT22;5063;50.878;4.742;2023-09-19T14:02:23;21.30;99.90
10046;DHT22;5063;50.878;4.742;2023-09-19T14:04:49;21.20;99.90
10046;DHT22;5063;50.878;4.742;2023-09-19T14:07:16;21.10;99.90
10046;DHT22;5063;50.878;4.742;2023-09-19T14:09:43;21.00;99.90
10046;DHT22;5063;50.878;4.742;2023-09-19T14:12:08;21.00;99.90
10046;DHT22;5063;50.878;4.742;2023-09-19T14:14:35;21.00;99.90
10046;DHT22;5063;50.878;4.742;2023-09-19T14:17:00;21.00;99.90
10046;DHT22;5063;50.878;4.742;2023-09-19T14:19:27;21.20;99.90
10046;DHT22;5063;50.878;4.742;2023-09-19T14:21:53;21.40;99.90
10046;DHT22;5063;50.878;4.742;2023-09-19T14:24:21;21.40;99.90
10046;DHT22;5063;50.878;4.742;2023-09-19T14:26:46;21.30;99.90
10046;DHT22;5063;50.878;4.742;2023-09-19T14:29:13;21.20;99.90
10046;DHT22;5063;50.878;4.742;2023-09-19T14:31:40;21.00;99.90
10046;DHT22;5063;50.878;4.742;2023-09-19T14:34:06;20.80;99.90
10046;DHT22;5063;50.878;4.742;2023-09-19T14:36:32;20.70;99.90
10046;DHT22;5063;50.878;4.742;2023-09-19T14:38:59;20.60;99.90
10046;DHT22;5063;50.878;4.742;2023-09-19T14:41:25;20.70;99.90
10046;DHT22;5063;50.878;4.742;2023-09-19T14:43:51;20.80;99.90
10046;DHT22;5063;50.878;4.742;2023-09-19T14:46:17;20.90;99.90
10046;DHT22;5063;50.878;4.742;2023-09-19T14:48:45;21.20;99.90
10046;DHT22;5063;50.878;4.742;2023-09-19T14:51:13;21.40;99.90
10046;DHT22;5063;50.878;4.742;2023-09-19T14:53:39;21.60;99.90
10046;DHT22;5063;50.878;4.742;2023-09-19T14:56:07;21.80;99.90
10046;DHT22;5063;50.878;4.742;2023-09-19T14:58:33;21.80;99.90
10046;DHT22;5063;50.878;4.742;2023-09-19T15:01:10;21.80;99.90
10046;DHT22;5063;50.878;4.742;2023-09-19T15:03:36;21.90;99.90
10046;DHT22;5063;50.878;4.742;2023-09-19T15:06:04;21.80;99.90
10046;DHT22;5063;50.878;4.742;2023-09-19T15:08:31;21.50;99.90
10046;DHT22;5063;50.878;4.742;2023-09-19T15:10:57;21.20;99.90
10046;DHT22;5063;50.878;4.742;2023-09-19T15:13:24;21.00;99.90
10046;DHT22;5063;50.878;4.742;2023-09-19T15:15:59;20.90;99.90
10046;DHT22;5063;50.878;4.742;2023-09-19T15:18:25;20.80;99.90
10046;DHT22;5063;50.878;4.742;2023-09-19T15:20:51;20.60;99.90
10046;DHT22;5063;50.878;4.742;2023-09-19T15:23:16;20.40;99.90
10046;DHT22;5063;50.878;4.742;2023-09-19T15:25:50;20.20;99.90
10046;DHT22;5063;50.878;4.742;2023-09-19T15:28:16;20.10;99.90
10046;DHT22;5063;50.878;4.742;2023-09-19T15:30:42;20.10;99.90
10046;DHT22;5063;50.878;4.742;2023-09-19T15:33:08;20.10;99.90
10046;DHT22;5063;50.878;4.742;2023-09-19T15:35:33;20.10;99.90
10046;DHT22;5063;50.878;4.742;2023-09-19T15:38:03;20.10;99.90
10046;DHT22;5063;50.878;4.742;2023-09-19T15:40:29;20.00;99.90
10046;DHT22;5063;50.878;4.742;2023-09-19T15:42:55;19.90;99.90
10046;DHT22;5063;50.878;4.742;2023-09-19T15:45:24;19.80;99.90
10046;DHT22;5063;50.878;4.742;2023-09-19T15:47:51;19.70;99.90
10046;DHT22;5063;50.878;4.742;2023-09-19T15:50:16;19.60;99.90
10046;DHT22;5063;50.878;4.742;2023-09-19T15:52:42;19.60;99.90
10046;DHT22;5063;50.878;4.742;2023-09-19T15:55:08;19.70;99.90
10046;DHT22;5063;50.878;4.742;2023-09-19T15:57:38;19.60;99.90
10046;DHT22;5063;50.878;4.742;2023-09-19T16:00:05;19.60;99.90
10046;DHT22;5063;50.878;4.742;2023-09-19T16:02:36;19.40;99.90
10046;DHT22;5063;50.878;4.742;2023-09-19T16:05:02;19.40;99.90
10046;DHT22;5063;50.878;4.742;2023-09-19T16:07:31;19.30;99.90
10046;DHT22;5063;50.878;4.742;2023-09-19T16:09:57;19.30;99.90
10046;DHT22;5063;50.878;4.742;2023-09-19T16:12:25;19.40;99.90
10046;DHT22;5063;50.878;4.742;2023-09-19T16:14:51;19.40;99.90
10046;DHT22;5063;50.878;4.742;2023-09-19T16:17:17;19.30;99.90
10046;DHT22;5063;50.878;4.742;2023-09-19T16:19:43;19.40;99.90
10046;DHT22;5063;50.878;4.742;2023-09-19T16:22:09;19.30;99.90
10046;DHT22;5063;50.878;4.742;2023-09-19T16:24:35;19.30;99.90
10046;DHT22;5063;50.878;4.742;2023-09-19T16:27:01;19.30;99.90
10046;DHT22;5063;50.878;4.742;2023-09-19T16:29:27;19.40;99.90
10046;DHT22;5063;50.878;4.742;2023-09-19T16:31:53;19.40;99.90
10046;DHT22;5063;50.878;4.742;2023-09-19T16:34:19;19.40;99.90
10046;DHT22;5063;50.878;4.742;2023-09-19T16:36:44;19.30;99.90
10046;DHT22;5063;50.878;4.742;2023-09-19T16:39:11;19.30;99.90
10046;DHT22;5063;50.878;4.742;2023-09-19T16:41:37;19.30;99.90
10046;DHT22;5063;50.878;4.742;2023-09-19T16:44:03;19.30;99.90
10046;DHT22;5063;50.878;4.742;2023-09-19T16:46:33;19.30;99.90
10046;DHT22;5063;50.878;4.742;2023-09-19T16:48:59;19.30;99.90
10046;DHT22;5063;50.878;4.742;2023-09-19T16:51:25;19.40;99.90